createdAt,value
2022-08-19T00:04:30.937Z,0.00
2022-08-19T00:14:37.470Z,0.00
2022-08-19T00:24:43.849Z,0.00
2022-08-19T00:34:54.924Z,0.00
2022-08-19T00:45:00.889Z,0.00
2022-08-19T00:55:07.191Z,0.00
2022-08-19T01:05:13.345Z,0.00
2022-08-19T01:15:19.514Z,0.00
2022-08-19T01:25:25.547Z,0.00
2022-08-19T01:35:33.178Z,0.00
2022-08-19T01:45:40.661Z,0.00
2022-08-19T01:55:46.221Z,0.00
2022-08-19T02:05:54.172Z,0.00
2022-08-19T02:16:00.240Z,0.00
2022-08-19T02:26:12.658Z,0.00
2022-08-19T02:36:20.791Z,0.00
2022-08-19T02:46:27.791Z,0.00
2022-08-19T02:56:34.120Z,0.00
2022-08-19T03:06:40.302Z,0.00
2022-08-19T03:16:46.912Z,0.00
2022-08-19T03:26:53.285Z,0.00
2022-08-19T03:37:00.234Z,0.00
2022-08-19T03:47:06.490Z,0.00
2022-08-19T03:57:13.018Z,4.00
2022-08-19T04:07:19.126Z,8.00
2022-08-19T04:17:25.736Z,20.00
2022-08-19T04:27:32.109Z,44.00
2022-08-19T04:37:38.244Z,96.00
2022-08-19T04:47:49.263Z,116.00
2022-08-19T04:57:55.995Z,228.00
2022-08-19T05:08:01.966Z,240.00
2022-08-19T05:18:08.235Z,272.00
2022-08-19T05:28:14.276Z,440.00
2022-08-19T05:38:20.824Z,496.00
2022-08-19T05:48:27.022Z,408.00
2022-08-19T05:58:32.922Z,540.00
2022-08-19T06:08:38.596Z,356.00
2022-08-19T06:18:44.306Z,384.00
2022-08-19T06:28:50.276Z,408.00
2022-08-19T06:38:58.701Z,252.00
2022-08-19T06:49:04.985Z,248.00
2022-08-19T06:59:12.057Z,316.00
2022-08-19T07:09:18.648Z,436.00
2022-08-19T07:19:25.038Z,576.00
2022-08-19T07:29:31.118Z,824.00
2022-08-19T07:39:37.710Z,1052.00
2022-08-19T07:49:44.316Z,1200.00
2022-08-19T07:59:53.740Z,1512.00
2022-08-19T08:09:59.358Z,1708.00
2022-08-19T08:20:11.675Z,1124.00
2022-08-19T08:30:18.121Z,1056.00
2022-08-19T08:40:24.986Z,880.00
2022-08-19T08:50:31.475Z,1044.00
2022-08-19T09:00:37.745Z,1172.00
2022-08-19T09:10:44.979Z,1432.00
2022-08-19T09:20:53.073Z,2124.00
2022-08-19T09:30:59.498Z,2856.00
2022-08-19T09:41:05.861Z,2544.00
2022-08-19T09:51:13.704Z,5052.00
2022-08-19T10:01:23.528Z,5640.00
2022-08-19T10:11:36.572Z,4700.00
2022-08-19T10:21:42.260Z,4212.00
2022-08-19T10:32:00.095Z,2656.00
2022-08-19T10:42:00.719Z,2384.00
2022-08-19T10:52:06.663Z,1252.00
2022-08-19T11:02:18.700Z,1200.00
2022-08-19T11:12:24.739Z,1240.00
2022-08-19T11:22:39.045Z,2964.00
2022-08-19T11:32:49.416Z,4376.00
2022-08-19T11:42:55.748Z,6056.00
2022-08-19T11:53:03.793Z,12324.00
2022-08-19T12:03:12.404Z,11332.00
2022-08-19T12:13:18.877Z,8368.00
2022-08-19T12:23:25.428Z,6232.00
2022-08-19T12:33:31.771Z,5152.00
2022-08-19T12:43:38.203Z,2956.00
2022-08-19T12:53:44.530Z,6392.00
2022-08-19T13:03:51.128Z,8700.00
2022-08-19T13:13:57.577Z,6140.00
2022-08-19T13:24:04.515Z,3192.00
2022-08-19T13:34:13.723Z,2620.00
2022-08-19T13:44:19.677Z,1984.00
2022-08-19T13:54:27.962Z,3312.00
2022-08-19T14:04:34.350Z,3416.00
2022-08-19T14:14:40.642Z,2636.00
2022-08-19T14:24:47.923Z,2440.00
2022-08-19T14:34:54.371Z,2724.00
2022-08-19T14:45:00.047Z,2932.00
2022-08-19T14:55:07.519Z,2552.00
2022-08-19T15:05:13.741Z,2484.00
2022-08-19T15:15:19.600Z,2516.00
2022-08-19T15:25:25.292Z,2204.00
2022-08-19T15:35:31.266Z,3636.00
2022-08-19T15:45:37.088Z,3908.00
2022-08-19T15:55:42.896Z,2956.00
2022-08-19T16:05:48.719Z,3000.00
2022-08-19T16:15:54.690Z,2720.00
2022-08-19T16:26:00.635Z,1620.00
2022-08-19T16:36:07.706Z,1040.00
2022-08-19T16:46:18.607Z,1380.00
2022-08-19T16:56:24.828Z,1152.00
2022-08-19T17:06:30.707Z,1076.00
2022-08-19T17:16:36.574Z,1128.00
2022-08-19T17:26:42.097Z,804.00
2022-08-19T17:36:48.020Z,664.00
2022-08-19T17:46:53.800Z,516.00
2022-08-19T17:56:59.406Z,244.00
2022-08-19T18:07:05.345Z,172.00
2022-08-19T18:18:42.000Z,96.00
2022-08-19T18:28:49.724Z,40.00
2022-08-19T18:38:55.997Z,12.00
2022-08-19T18:49:01.380Z,0.00
2022-08-19T18:59:07.038Z,0.00
2022-08-19T19:09:13.437Z,0.00
2022-08-19T19:19:21.537Z,0.00
2022-08-19T19:29:29.905Z,0.00
2022-08-19T19:39:46.403Z,0.00
2022-08-19T19:50:12.707Z,0.00
2022-08-19T20:00:00.763Z,0.00
2022-08-19T20:10:06.773Z,0.00
2022-08-19T20:20:14.385Z,0.00
2022-08-19T20:30:20.140Z,0.00
2022-08-19T20:40:28.335Z,0.00
2022-08-19T20:50:34.469Z,0.00
2022-08-19T21:00:40.747Z,0.00
2022-08-19T21:10:47.152Z,0.00
2022-08-19T21:20:53.235Z,0.00
2022-08-19T21:30:59.817Z,0.00
2022-08-19T21:41:06.868Z,0.00
2022-08-19T21:51:13.346Z,0.00
2022-08-19T22:01:20.446Z,0.00
2022-08-19T22:11:26.566Z,0.00
2022-08-19T22:21:40.278Z,0.00
2022-08-19T22:31:43.903Z,0.00
2022-08-19T22:41:50.000Z,0.00
2022-08-19T22:51:56.208Z,0.00
2022-08-19T23:02:06.549Z,0.00
2022-08-19T23:12:12.310Z,0.00
2022-08-19T23:22:20.159Z,0.00
2022-08-19T23:32:31.085Z,0.00
2022-08-19T23:42:37.470Z,0.00
2022-08-19T23:52:43.642Z,0.00
